createdAt,value
2019-03-22T00:02:23.077Z,12.48
2019-03-22T00:04:53.290Z,12.45
2019-03-22T00:07:23.650Z,12.46
2019-03-22T00:09:53.818Z,12.52
2019-03-22T00:12:23.974Z,12.53
2019-03-22T00:14:54.207Z,12.49
2019-03-22T00:17:24.416Z,12.42
2019-03-22T00:19:54.622Z,12.28
2019-03-22T00:22:24.767Z,12.04
2019-03-22T00:24:54.939Z,11.87
2019-03-22T00:27:25.116Z,11.82
2019-03-22T00:29:55.283Z,11.77
2019-03-22T00:32:25.497Z,11.60
2019-03-22T00:34:55.802Z,11.68
2019-03-22T00:37:26.112Z,11.65
2019-03-22T00:39:56.336Z,11.88
2019-03-22T00:42:26.460Z,11.75
2019-03-22T00:44:56.658Z,11.87
2019-03-22T00:47:26.851Z,11.39
2019-03-22T00:49:57.027Z,11.57
2019-03-22T00:52:27.264Z,11.70
2019-03-22T00:54:57.429Z,11.49
2019-03-22T00:57:28.724Z,11.30
2019-03-22T00:59:59.303Z,11.28
2019-03-22T01:02:29.477Z,11.36
2019-03-22T01:04:59.817Z,11.35
2019-03-22T01:07:29.983Z,11.37
2019-03-22T01:10:00.358Z,11.46
2019-03-22T01:12:30.544Z,11.52
2019-03-22T01:15:00.694Z,11.64
2019-03-22T01:17:30.919Z,11.63
2019-03-22T01:20:01.033Z,11.75
2019-03-22T01:22:31.186Z,11.78
2019-03-22T01:25:01.446Z,11.60
2019-03-22T01:27:39.766Z,11.76
2019-03-22T01:30:03.791Z,11.87
2019-03-22T01:32:33.973Z,11.90
2019-03-22T01:35:04.232Z,11.68
2019-03-22T01:37:34.411Z,11.65
2019-03-22T01:40:04.888Z,11.59
2019-03-22T01:42:36.068Z,11.61
2019-03-22T01:45:07.933Z,11.63
2019-03-22T01:47:38.293Z,11.76
2019-03-22T01:50:10.299Z,11.48
2019-03-22T01:52:41.003Z,11.22
2019-03-22T01:55:11.303Z,11.38
2019-03-22T01:57:52.395Z,11.25
2019-03-22T02:00:13.795Z,11.14
2019-03-22T02:02:44.040Z,11.11
2019-03-22T02:05:15.905Z,11.19
2019-03-22T02:07:46.157Z,11.13
2019-03-22T02:10:16.378Z,10.99
2019-03-22T02:12:46.529Z,10.89
2019-03-22T02:15:16.979Z,10.77
2019-03-22T02:17:47.138Z,10.77
2019-03-22T02:20:17.627Z,10.71
2019-03-22T02:22:48.001Z,10.76
2019-03-22T02:25:18.163Z,10.76
2019-03-22T02:27:48.329Z,10.79
2019-03-22T02:30:18.687Z,10.76
2019-03-22T02:32:49.146Z,10.76
2019-03-22T02:35:28.265Z,10.79
2019-03-22T02:37:51.196Z,10.86
2019-03-22T02:40:21.360Z,10.83
2019-03-22T02:42:51.527Z,10.86
2019-03-22T02:45:21.728Z,10.94
2019-03-22T02:47:51.959Z,11.14
2019-03-22T02:50:22.141Z,11.18
2019-03-22T02:52:52.278Z,11.26
2019-03-22T02:55:22.454Z,11.09
2019-03-22T02:57:52.667Z,11.04
2019-03-22T03:00:22.810Z,10.91
2019-03-22T03:02:53.094Z,11.08
2019-03-22T03:05:23.248Z,11.03
2019-03-22T03:07:53.525Z,11.16
2019-03-22T03:10:23.724Z,11.17
2019-03-22T03:12:53.884Z,11.13
2019-03-22T03:15:24.035Z,11.10
2019-03-22T03:17:54.222Z,10.68
2019-03-22T03:20:24.406Z,10.87
2019-03-22T03:22:54.676Z,10.42
2019-03-22T03:25:24.883Z,10.47
2019-03-22T03:27:55.028Z,10.63
2019-03-22T03:30:25.250Z,10.69
2019-03-22T03:32:55.456Z,10.68
2019-03-22T03:35:25.652Z,10.62
2019-03-22T03:37:55.823Z,10.37
2019-03-22T03:40:25.957Z,10.58
2019-03-22T03:42:56.323Z,10.75
2019-03-22T03:45:33.526Z,10.76
2019-03-22T03:48:04.901Z,11.04
2019-03-22T03:50:35.164Z,11.10
2019-03-22T03:53:05.694Z,11.37
2019-03-22T03:55:36.074Z,11.55
2019-03-22T03:58:06.582Z,11.66
2019-03-22T04:00:37.099Z,11.73
2019-03-22T04:03:07.392Z,11.96
2019-03-22T04:05:37.610Z,11.44
2019-03-22T04:08:07.873Z,11.36
2019-03-22T04:10:38.124Z,10.62
2019-03-22T04:13:08.350Z,10.88
2019-03-22T04:15:38.487Z,10.64
2019-03-22T04:18:08.692Z,10.73
2019-03-22T04:20:38.849Z,10.74
2019-03-22T04:23:08.951Z,10.72
2019-03-22T04:25:39.105Z,10.61
2019-03-22T04:28:09.273Z,10.52
2019-03-22T04:30:39.496Z,10.39
2019-03-22T04:33:09.767Z,10.06
2019-03-22T04:35:39.909Z,10.21
2019-03-22T04:38:10.101Z,10.34
2019-03-22T04:40:40.249Z,10.74
2019-03-22T04:43:10.440Z,10.51
2019-03-22T04:45:41.892Z,10.39
2019-03-22T04:48:30.509Z,10.83
2019-03-22T04:51:03.758Z,10.55
2019-03-22T04:53:44.722Z,10.44
2019-03-22T04:56:18.278Z,10.30
2019-03-22T04:58:50.759Z,10.30
2019-03-22T05:01:23.852Z,10.17
2019-03-22T05:03:54.886Z,10.18
2019-03-22T05:06:25.554Z,10.16
2019-03-22T05:08:58.061Z,10.09
2019-03-22T05:11:29.868Z,10.75
2019-03-22T05:14:02.116Z,10.47
2019-03-22T05:16:34.183Z,10.70
2019-03-22T05:19:04.963Z,11.16
2019-03-22T05:21:36.640Z,10.55
2019-03-22T05:24:08.456Z,11.47
2019-03-22T05:26:40.837Z,10.97
2019-03-22T05:29:14.004Z,11.72
2019-03-22T05:32:15.907Z,11.30
2019-03-22T05:34:46.183Z,11.98
2019-03-22T05:37:16.538Z,11.10
2019-03-22T05:39:46.720Z,10.74
2019-03-22T05:42:16.887Z,11.23
2019-03-22T05:44:47.094Z,11.71
2019-03-22T05:47:17.237Z,11.74
2019-03-22T05:49:49.354Z,12.09
2019-03-22T05:52:19.546Z,12.29
2019-03-22T05:54:52.463Z,12.07
2019-03-22T05:57:23.248Z,11.16
2019-03-22T05:59:54.345Z,11.73
2019-03-22T06:02:25.948Z,11.33
2019-03-22T06:04:57.170Z,11.44
2019-03-22T06:07:28.312Z,12.19
2019-03-22T06:09:58.947Z,12.15
2019-03-22T06:12:29.806Z,12.26
2019-03-22T06:15:01.259Z,12.37
2019-03-22T06:17:34.942Z,11.49
2019-03-22T06:20:05.802Z,12.27
2019-03-22T06:22:36.679Z,12.00
2019-03-22T06:25:08.144Z,11.93
2019-03-22T06:27:40.761Z,11.74
2019-03-22T06:30:12.915Z,11.22
2019-03-22T06:32:46.720Z,11.61
2019-03-22T06:35:17.450Z,11.49
2019-03-22T06:37:49.079Z,11.79
2019-03-22T06:40:22.120Z,12.52
2019-03-22T06:42:52.478Z,11.65
2019-03-22T06:45:22.891Z,12.48
2019-03-22T06:47:53.501Z,12.23
2019-03-22T06:50:23.984Z,11.82
2019-03-22T06:53:02.239Z,11.99
2019-03-22T06:55:36.439Z,12.49
2019-03-22T06:58:07.903Z,12.67
2019-03-22T07:00:41.011Z,11.95
2019-03-22T07:03:12.519Z,12.92
2019-03-22T07:05:43.612Z,12.97
2019-03-22T07:08:14.986Z,12.75
2019-03-22T07:10:46.451Z,12.66
2019-03-22T07:13:18.369Z,12.04
2019-03-22T07:15:49.896Z,12.31
2019-03-22T07:18:22.475Z,12.62
2019-03-22T07:20:54.514Z,12.76
2019-03-22T07:23:26.634Z,13.34
2019-03-22T07:25:57.643Z,12.83
2019-03-22T07:28:29.469Z,12.27
2019-03-22T07:31:01.499Z,13.31
2019-03-22T07:33:32.905Z,12.90
2019-03-22T07:36:04.061Z,12.33
2019-03-22T07:38:35.963Z,12.32
2019-03-22T07:41:08.179Z,12.35
2019-03-22T07:43:38.921Z,12.69
2019-03-22T07:52:06.815Z,13.15
2019-03-22T07:54:39.134Z,13.49
2019-03-22T07:57:12.125Z,13.80
2019-03-22T07:59:44.794Z,13.02
2019-03-22T08:03:11.482Z,12.77
2019-03-22T08:05:50.960Z,13.23
2019-03-22T08:08:14.642Z,13.64
2019-03-22T08:10:45.712Z,14.17
2019-03-22T08:13:18.239Z,14.31
2019-03-22T08:15:49.085Z,13.86
2019-03-22T08:18:20.467Z,14.30
2019-03-22T08:20:51.150Z,13.82
2019-03-22T08:23:22.945Z,14.17
2019-03-22T08:25:55.515Z,14.50
2019-03-22T08:28:27.694Z,14.52
2019-03-22T08:30:59.488Z,14.77
2019-03-22T08:33:30.907Z,14.89
2019-03-22T08:36:03.002Z,15.09
2019-03-22T08:38:36.737Z,14.72
2019-03-22T08:41:08.600Z,15.11
2019-03-22T08:43:40.423Z,14.72
2019-03-22T08:46:10.882Z,15.04
2019-03-22T08:48:41.126Z,15.68
2019-03-22T08:51:11.375Z,15.36
2019-03-22T08:53:54.357Z,15.83
2019-03-22T08:56:16.301Z,15.48
2019-03-22T08:58:47.135Z,15.08
2019-03-22T09:01:17.287Z,15.08
2019-03-22T09:03:47.436Z,14.92
2019-03-22T09:06:17.953Z,14.56
2019-03-22T09:08:48.444Z,15.24
2019-03-22T09:11:23.931Z,15.66
2019-03-22T09:13:54.760Z,16.31
2019-03-22T09:16:26.962Z,15.75
2019-03-22T09:18:57.437Z,16.51
2019-03-22T09:21:28.366Z,17.00
2019-03-22T09:24:00.143Z,16.48
2019-03-22T09:26:31.082Z,16.63
2019-03-22T09:29:02.383Z,17.19
2019-03-22T09:31:33.714Z,17.40
2019-03-22T09:34:05.015Z,16.93
2019-03-22T09:36:36.937Z,16.80
2019-03-22T09:39:09.820Z,17.57
2019-03-22T09:41:41.246Z,17.96
2019-03-22T09:44:12.978Z,17.91
2019-03-22T09:46:44.013Z,17.81
2019-03-22T09:49:15.388Z,17.77
2019-03-22T09:51:45.519Z,17.40
2019-03-22T09:54:15.727Z,17.13
2019-03-22T09:56:47.371Z,17.55
2019-03-22T09:59:17.984Z,17.96
2019-03-22T10:01:48.190Z,18.41
2019-03-22T10:04:18.383Z,18.71
2019-03-22T10:06:52.948Z,17.99
2019-03-22T10:09:26.303Z,17.71
2019-03-22T10:11:57.606Z,18.14
2019-03-22T10:14:31.371Z,18.72
2019-03-22T10:17:03.064Z,18.72
2019-03-22T10:19:34.823Z,18.80
2019-03-22T10:22:05.010Z,19.37
2019-03-22T10:24:35.210Z,19.91
2019-03-22T10:27:05.568Z,19.87
2019-03-22T10:29:35.840Z,18.34
2019-03-22T10:32:06.137Z,18.35
2019-03-22T10:34:39.569Z,18.28
2019-03-22T10:37:08.229Z,18.81
2019-03-22T10:39:38.383Z,19.40
2019-03-22T10:42:08.557Z,19.56
2019-03-22T10:44:39.540Z,20.07
2019-03-22T10:47:09.756Z,19.67
2019-03-22T10:49:41.872Z,18.85
2019-03-22T10:52:11.748Z,18.70
2019-03-22T10:54:41.960Z,19.02
2019-03-22T10:57:12.169Z,18.65
2019-03-22T10:59:42.288Z,19.30
2019-03-22T11:02:12.861Z,19.66
2019-03-22T11:04:43.026Z,19.62
2019-03-22T11:07:13.317Z,18.86
2019-03-22T11:09:43.590Z,18.81
2019-03-22T11:12:13.803Z,18.77
2019-03-22T11:14:45.698Z,19.13
2019-03-22T11:17:16.006Z,19.07
2019-03-22T11:19:46.117Z,19.37
2019-03-22T11:22:16.334Z,19.43
2019-03-22T11:24:46.469Z,19.38
2019-03-22T11:27:16.639Z,19.34
2019-03-22T11:29:46.814Z,19.35
2019-03-22T11:32:17.002Z,19.14
2019-03-22T11:34:47.175Z,19.26
2019-03-22T11:37:17.467Z,19.28
2019-03-22T11:39:47.588Z,19.49
2019-03-22T11:42:17.822Z,19.47
2019-03-22T11:44:47.961Z,19.64
2019-03-22T11:47:18.255Z,19.76
2019-03-22T11:49:48.421Z,20.26
2019-03-22T11:52:18.562Z,20.62
2019-03-22T11:54:48.824Z,19.97
2019-03-22T11:57:18.973Z,20.40
2019-03-22T11:59:49.158Z,19.93
2019-03-22T12:02:22.617Z,20.25
2019-03-22T12:04:51.116Z,20.83
2019-03-22T12:07:21.308Z,21.28
2019-03-22T12:09:51.556Z,20.78
2019-03-22T12:12:21.767Z,21.21
2019-03-22T12:14:51.958Z,20.94
2019-03-22T12:17:22.141Z,21.19
2019-03-22T12:19:52.812Z,20.91
2019-03-22T12:22:22.993Z,20.14
2019-03-22T12:24:53.230Z,20.18
2019-03-22T12:27:23.395Z,19.95
2019-03-22T12:29:53.519Z,20.43
2019-03-22T12:32:31.980Z,19.66
2019-03-22T12:34:55.757Z,19.58
2019-03-22T12:37:25.923Z,19.46
2019-03-22T12:39:56.087Z,20.22
2019-03-22T12:42:26.221Z,20.84
2019-03-22T12:44:56.432Z,20.01
2019-03-22T12:47:26.555Z,20.36
2019-03-22T12:49:56.760Z,20.10
2019-03-22T12:52:27.018Z,20.04
2019-03-22T12:54:57.194Z,20.07
2019-03-22T12:57:27.349Z,20.07
2019-03-22T12:59:57.549Z,19.61
2019-03-22T13:02:27.847Z,19.39
2019-03-22T13:04:58.675Z,19.81
2019-03-22T13:07:28.818Z,20.43
2019-03-22T13:09:58.997Z,20.68
2019-03-22T13:12:29.157Z,20.32
2019-03-22T13:14:59.366Z,20.57
2019-03-22T13:17:29.489Z,20.50
2019-03-22T13:19:59.702Z,20.05
2019-03-22T13:22:29.888Z,20.02
2019-03-22T13:25:00.122Z,19.85
2019-03-22T13:27:30.548Z,19.87
2019-03-22T13:30:00.758Z,20.79
2019-03-22T13:32:30.995Z,21.28
2019-03-22T13:35:01.194Z,20.89
2019-03-22T13:37:31.338Z,20.63
2019-03-22T13:40:01.573Z,20.86
2019-03-22T13:42:31.845Z,20.32
2019-03-22T13:45:02.031Z,19.94
2019-03-22T13:47:32.246Z,19.99
2019-03-22T13:50:02.452Z,19.42
2019-03-22T13:52:32.678Z,19.82
2019-03-22T13:55:02.937Z,19.64
2019-03-22T13:57:33.076Z,19.49
2019-03-22T14:00:03.264Z,19.53
2019-03-22T14:02:35.410Z,19.61
2019-03-22T14:05:06.652Z,19.29
2019-03-22T14:07:36.910Z,19.26
2019-03-22T14:10:07.415Z,19.93
2019-03-22T14:12:37.723Z,20.17
2019-03-22T14:15:08.263Z,20.96
2019-03-22T14:17:38.525Z,21.11
2019-03-22T14:20:11.557Z,20.70
2019-03-22T14:25:09.206Z,20.98
2019-03-22T14:27:39.356Z,21.34
2019-03-22T14:30:09.897Z,21.40
2019-03-22T14:32:40.180Z,21.07
2019-03-22T14:35:10.407Z,21.43
2019-03-22T14:37:40.596Z,20.38
2019-03-22T14:40:15.603Z,19.96
2019-03-22T14:42:42.691Z,19.90
2019-03-22T14:45:13.534Z,19.50
2019-03-22T14:47:43.716Z,19.38
2019-03-22T14:50:14.138Z,19.42
2019-03-22T14:52:44.328Z,19.39
2019-03-22T14:55:16.119Z,19.10
2019-03-22T14:57:49.920Z,19.10
2019-03-22T15:00:18.498Z,19.62
2019-03-22T15:02:48.802Z,20.07
2019-03-22T15:05:19.011Z,19.64
2019-03-22T15:07:49.232Z,19.05
2019-03-22T15:10:19.499Z,18.92
2019-03-22T15:12:49.979Z,18.78
2019-03-22T15:15:37.744Z,18.66
2019-03-22T15:18:19.322Z,18.73
2019-03-22T15:21:14.439Z,18.54
2019-03-22T15:24:13.090Z,18.24
2019-03-22T15:27:19.568Z,18.13
2019-03-22T15:30:04.880Z,18.54
2019-03-22T15:33:02.974Z,18.36
2019-03-22T15:35:54.932Z,18.27
2019-03-22T15:39:02.580Z,18.19
2019-03-22T15:41:32.845Z,18.07
2019-03-22T15:44:03.044Z,18.26
2019-03-22T15:46:33.317Z,18.39
2019-03-22T15:49:03.503Z,18.50
2019-03-22T15:51:33.672Z,18.46
2019-03-22T15:54:03.805Z,18.19
2019-03-22T15:56:33.943Z,18.18
2019-03-22T15:59:04.221Z,17.63
2019-03-22T16:01:34.354Z,17.43
2019-03-22T16:04:04.663Z,17.31
2019-03-22T16:06:34.808Z,17.31
2019-03-22T16:09:06.757Z,17.42
2019-03-22T16:11:36.931Z,17.50
2019-03-22T16:14:07.360Z,17.59
2019-03-22T16:16:37.645Z,17.61
2019-03-22T16:19:07.848Z,17.61
2019-03-22T16:21:37.953Z,17.60
2019-03-22T16:24:08.120Z,17.61
2019-03-22T16:26:38.266Z,17.63
2019-03-22T16:29:08.351Z,17.61
2019-03-22T16:31:38.510Z,17.58
2019-03-22T16:34:08.640Z,17.64
2019-03-22T16:36:38.761Z,17.57
2019-03-22T16:39:10.162Z,17.52
2019-03-22T16:41:40.315Z,17.45
2019-03-22T16:44:10.487Z,17.33
2019-03-22T16:46:40.614Z,17.31
2019-03-22T16:49:10.763Z,17.28
2019-03-22T16:51:40.884Z,17.25
2019-03-22T16:54:11.061Z,17.32
2019-03-22T16:56:41.165Z,17.30
2019-03-22T16:59:11.314Z,17.23
2019-03-22T17:01:41.437Z,17.21
2019-03-22T17:04:11.570Z,17.29
2019-03-22T17:06:41.771Z,17.24
2019-03-22T17:09:11.893Z,17.20
2019-03-22T17:11:42.017Z,17.29
2019-03-22T17:14:12.161Z,17.26
2019-03-22T17:16:42.302Z,16.96
2019-03-22T17:19:12.474Z,17.16
2019-03-22T17:21:42.598Z,17.08
2019-03-22T17:24:12.734Z,17.00
2019-03-22T17:26:42.950Z,17.13
2019-03-22T17:29:13.055Z,17.16
2019-03-22T17:31:43.325Z,17.16
2019-03-22T17:34:14.416Z,17.19
2019-03-22T17:36:44.686Z,17.21
2019-03-22T17:39:14.839Z,17.21
2019-03-22T17:41:45.067Z,17.19
2019-03-22T17:44:16.004Z,17.04
2019-03-22T17:46:46.220Z,16.62
2019-03-22T17:49:16.393Z,16.50
2019-03-22T17:51:46.581Z,16.48
2019-03-22T17:54:16.711Z,16.33
2019-03-22T17:56:46.876Z,16.43
2019-03-22T17:59:17.056Z,16.33
2019-03-22T18:01:47.250Z,16.36
2019-03-22T18:04:24.147Z,16.29
2019-03-22T18:06:49.409Z,16.31
2019-03-22T18:09:19.616Z,16.33
2019-03-22T18:11:49.807Z,16.16
2019-03-22T18:14:20.033Z,16.14
2019-03-22T18:16:50.162Z,15.96
2019-03-22T18:19:20.351Z,15.84
2019-03-22T18:21:50.457Z,15.78
2019-03-22T18:24:20.620Z,15.56
2019-03-22T18:26:50.812Z,15.51
2019-03-22T18:29:21.012Z,15.48
2019-03-22T18:31:51.159Z,15.48
2019-03-22T18:34:21.366Z,15.52
2019-03-22T18:36:51.571Z,15.44
2019-03-22T18:39:21.773Z,15.45
2019-03-22T18:41:51.982Z,15.55
2019-03-22T18:44:22.086Z,15.69
2019-03-22T18:46:52.271Z,15.63
2019-03-22T18:49:22.428Z,15.57
2019-03-22T18:51:52.662Z,15.63
2019-03-22T18:54:22.798Z,15.53
2019-03-22T18:56:52.904Z,15.47
2019-03-22T18:59:23.100Z,15.51
2019-03-22T19:01:53.365Z,15.29
2019-03-22T19:04:23.492Z,15.32
2019-03-22T19:06:53.615Z,15.36
2019-03-22T19:09:23.820Z,15.33
2019-03-22T19:11:54.046Z,15.07
2019-03-22T19:14:24.215Z,15.22
2019-03-22T19:16:54.392Z,15.33
2019-03-22T19:19:24.613Z,15.29
2019-03-22T19:21:54.808Z,15.22
2019-03-22T19:24:25.009Z,15.08
2019-03-22T19:26:55.216Z,14.99
2019-03-22T19:29:25.478Z,14.89
2019-03-22T19:31:55.615Z,14.98
2019-03-22T19:34:25.821Z,15.08
2019-03-22T19:36:55.989Z,14.98
2019-03-22T19:39:26.170Z,14.66
2019-03-22T19:41:56.306Z,14.53
2019-03-22T19:44:26.526Z,14.58
2019-03-22T19:46:56.736Z,14.65
2019-03-22T19:49:26.857Z,14.55
2019-03-22T19:51:57.061Z,14.30
2019-03-22T19:54:27.196Z,14.24
2019-03-22T19:56:57.381Z,14.33
2019-03-22T19:59:27.542Z,14.45
2019-03-22T20:01:57.740Z,14.48
2019-03-22T20:04:27.951Z,14.51
2019-03-22T20:06:58.213Z,14.50
2019-03-22T20:09:28.413Z,14.44
2019-03-22T20:11:58.704Z,14.58
2019-03-22T20:14:28.980Z,14.45
2019-03-22T20:16:59.165Z,14.40
2019-03-22T20:19:29.640Z,14.23
2019-03-22T20:21:59.864Z,14.19
2019-03-22T20:24:30.049Z,14.18
2019-03-22T20:27:00.232Z,14.30
2019-03-22T20:29:32.497Z,14.21
2019-03-22T20:32:02.616Z,14.29
2019-03-22T20:34:32.753Z,14.35
2019-03-22T20:37:02.938Z,14.15
2019-03-22T20:39:33.190Z,14.05
2019-03-22T20:42:03.402Z,13.97
2019-03-22T20:44:34.330Z,13.83
2019-03-22T20:47:04.653Z,13.67
2019-03-22T20:49:35.514Z,13.80
2019-03-22T20:52:05.759Z,13.70
2019-03-22T20:54:36.049Z,13.59
2019-03-22T20:57:06.391Z,13.35
2019-03-22T20:59:36.645Z,13.14
2019-03-22T21:02:06.906Z,13.03
2019-03-22T21:04:37.115Z,12.94
2019-03-22T21:07:07.351Z,12.74
2019-03-22T21:09:37.654Z,12.55
2019-03-22T21:12:07.902Z,12.60
2019-03-22T21:14:38.832Z,12.76
2019-03-22T21:17:09.039Z,12.86
2019-03-22T21:19:39.334Z,12.83
2019-03-22T21:22:09.954Z,13.15
2019-03-22T21:24:40.122Z,12.99
2019-03-22T21:27:15.436Z,13.75
2019-03-22T21:29:44.447Z,12.96
2019-03-22T21:32:14.441Z,12.94
2019-03-22T21:34:44.729Z,12.70
2019-03-22T21:37:14.857Z,12.23
2019-03-22T21:39:44.953Z,11.92
2019-03-22T21:42:15.161Z,11.91
2019-03-22T21:44:45.322Z,11.99
2019-03-22T21:47:15.476Z,11.86
2019-03-22T21:49:45.597Z,11.72
2019-03-22T21:52:15.811Z,11.82
2019-03-22T21:54:46.003Z,11.71
2019-03-22T21:57:16.158Z,11.68
2019-03-22T21:59:46.306Z,11.85
2019-03-22T22:02:16.514Z,11.74
2019-03-22T22:04:46.784Z,11.75
2019-03-22T22:07:17.022Z,11.61
2019-03-22T22:09:47.303Z,11.43
2019-03-22T22:12:17.542Z,11.13
2019-03-22T22:14:47.764Z,11.64
2019-03-22T22:17:17.986Z,11.67
2019-03-22T22:19:48.233Z,11.77
2019-03-22T22:22:18.383Z,11.77
2019-03-22T22:24:48.566Z,11.78
2019-03-22T22:27:18.747Z,11.92
2019-03-22T22:29:48.943Z,11.91
2019-03-22T22:32:19.079Z,11.93
2019-03-22T22:34:49.268Z,11.93
2019-03-22T22:37:19.511Z,11.78
2019-03-22T22:39:49.665Z,11.77
2019-03-22T22:42:19.862Z,11.73
2019-03-22T22:44:50.108Z,11.82
2019-03-22T22:47:20.314Z,11.94
2019-03-22T22:49:50.491Z,11.70
2019-03-22T22:52:20.667Z,11.64
2019-03-22T22:54:50.839Z,11.77
2019-03-22T22:57:21.072Z,11.83
2019-03-22T22:59:51.205Z,11.84
2019-03-22T23:02:21.348Z,11.77
2019-03-22T23:04:51.431Z,11.67
2019-03-22T23:07:21.611Z,11.68
2019-03-22T23:09:51.739Z,11.66
2019-03-22T23:12:21.929Z,11.61
2019-03-22T23:14:52.167Z,11.69
2019-03-22T23:17:23.284Z,11.77
2019-03-22T23:19:53.468Z,11.85
2019-03-22T23:22:23.708Z,11.72
2019-03-22T23:24:53.808Z,11.63
2019-03-22T23:27:23.916Z,11.65
2019-03-22T23:29:54.113Z,11.69
2019-03-22T23:32:24.252Z,11.71
2019-03-22T23:34:59.035Z,11.64
2019-03-22T23:37:26.276Z,11.64
2019-03-22T23:39:56.499Z,11.34
2019-03-22T23:42:26.665Z,11.26
2019-03-22T23:44:57.051Z,11.19
2019-03-22T23:47:27.408Z,11.29
2019-03-22T23:49:57.547Z,11.27
2019-03-22T23:52:27.748Z,11.35
2019-03-22T23:54:57.966Z,11.23
2019-03-22T23:57:28.191Z,11.19
2019-03-22T23:59:58.355Z,11.12
